sensor_id;sensor_type;location;lat;lon;timestamp;pressure;altitude;pressure_sealevel;temperature;humidity
10135;BME280;5107;48.850;8.924;2022-12-07T00:01:48;96873.56;;;2.64;98.94
10135;BME280;5107;48.850;8.924;2022-12-07T00:04:16;96869.19;;;2.65;99.21
10135;BME280;5107;48.850;8.924;2022-12-07T00:06:46;96867.66;;;2.62;99.18
10135;BME280;5107;48.850;8.924;2022-12-07T00:09:17;96870.97;;;2.64;99.18
10135;BME280;5107;48.850;8.924;2022-12-07T00:11:44;96866.50;;;2.66;99.36
10135;BME280;5107;48.850;8.924;2022-12-07T00:14:16;96865.66;;;2.66;99.58
10135;BME280;5107;48.850;8.924;2022-12-07T00:16:44;96867.66;;;2.62;99.17
10135;BME280;5107;48.850;8.924;2022-12-07T00:19:13;96871.69;;;2.66;99.45
10135;BME280;5107;48.850;8.924;2022-12-07T00:21:40;96871.69;;;2.66;99.92
10135;BME280;5107;48.850;8.924;2022-12-07T00:24:08;96866.34;;;2.68;99.25
10135;BME280;5107;48.850;8.924;2022-12-07T00:26:38;96861.88;;;2.70;99.44
10135;BME280;5107;48.850;8.924;2022-12-07T00:29:09;96862.13;;;2.67;99.12
10135;BME280;5107;48.850;8.924;2022-12-07T00:31:39;96860.09;;;2.71;99.38
10135;BME280;5107;48.850;8.924;2022-12-07T00:34:06;96861.66;;;2.73;99.47
10135;BME280;5107;48.850;8.924;2022-12-07T00:36:33;96862.69;;;2.71;98.44
10135;BME280;5107;48.850;8.924;2022-12-07T00:39:02;96853.25;;;2.70;98.79
10135;BME280;5107;48.850;8.924;2022-12-07T00:41:30;96859.84;;;2.62;98.29
10135;BME280;5107;48.850;8.924;2022-12-07T00:43:58;96858.19;;;2.61;98.24
10135;BME280;5107;48.850;8.924;2022-12-07T00:46:26;96860.56;;;2.64;98.86
10135;BME280;5107;48.850;8.924;2022-12-07T00:48:54;96858.22;;;2.73;98.51
10135;BME280;5107;48.850;8.924;2022-12-07T00:51:23;96857.03;;;2.77;98.42
10135;BME280;5107;48.850;8.924;2022-12-07T00:53:51;96866.34;;;2.79;98.57
10135;BME280;5107;48.850;8.924;2022-12-07T00:56:22;96866.63;;;2.76;97.92
10135;BME280;5107;48.850;8.924;2022-12-07T00:58:51;96870.38;;;2.72;97.68
10135;BME280;5107;48.850;8.924;2022-12-07T01:01:20;96868.59;;;2.73;97.69
10135;BME280;5107;48.850;8.924;2022-12-07T01:03:47;96868.13;;;2.79;97.19
10135;BME280;5107;48.850;8.924;2022-12-07T01:06:16;96862.94;;;2.67;97.10
10135;BME280;5107;48.850;8.924;2022-12-07T01:08:44;96861.50;;;2.63;97.57
10135;BME280;5107;48.850;8.924;2022-12-07T01:11:14;96871.56;;;2.57;97.54
10135;BME280;5107;48.850;8.924;2022-12-07T01:13:42;96865.16;;;2.61;98.67
10135;BME280;5107;48.850;8.924;2022-12-07T01:16:12;96876.75;;;2.57;98.13
10135;BME280;5107;48.850;8.924;2022-12-07T01:18:41;96866.25;;;2.58;98.44
10135;BME280;5107;48.850;8.924;2022-12-07T01:21:13;96856.53;;;2.60;99.16
10135;BME280;5107;48.850;8.924;2022-12-07T01:23:41;96857.16;;;2.64;99.18
10135;BME280;5107;48.850;8.924;2022-12-07T01:26:11;96864.34;;;2.60;98.77
10135;BME280;5107;48.850;8.924;2022-12-07T01:28:39;96866.94;;;2.60;98.66
10135;BME280;5107;48.850;8.924;2022-12-07T01:31:09;96871.66;;;2.55;98.57
10135;BME280;5107;48.850;8.924;2022-12-07T01:33:40;96873.44;;;2.55;98.93
10135;BME280;5107;48.850;8.924;2022-12-07T01:36:13;96876.03;;;2.55;99.50
10135;BME280;5107;48.850;8.924;2022-12-07T01:38:42;96879.00;;;2.50;99.29
10135;BME280;5107;48.850;8.924;2022-12-07T01:41:10;96875.56;;;2.50;99.62
10135;BME280;5107;48.850;8.924;2022-12-07T01:44:17;96878.28;;;2.48;99.80
10135;BME280;5107;48.850;8.924;2022-12-07T01:46:46;96880.97;;;2.47;99.93
10135;BME280;5107;48.850;8.924;2022-12-07T01:49:22;96883.56;;;2.47;99.95
10135;BME280;5107;48.850;8.924;2022-12-07T01:51:52;96877.91;;;2.42;99.93
10135;BME280;5107;48.850;8.924;2022-12-07T01:54:22;96879.44;;;2.44;99.95
10135;BME280;5107;48.850;8.924;2022-12-07T01:56:52;96882.84;;;2.45;100.00
10135;BME280;5107;48.850;8.924;2022-12-07T01:59:23;96882.03;;;2.44;100.00
10135;BME280;5107;48.850;8.924;2022-12-07T02:01:52;96882.28;;;2.41;100.00
10135;BME280;5107;48.850;8.924;2022-12-07T02:04:23;96871.88;;;2.41;100.00
10135;BME280;5107;48.850;8.924;2022-12-07T02:06:50;96877.78;;;2.32;99.95
10135;BME280;5107;48.850;8.924;2022-12-07T02:09:18;96874.91;;;2.35;100.00
10135;BME280;5107;48.850;8.924;2022-12-07T02:11:45;96873.88;;;2.38;100.00
10135;BME280;5107;48.850;8.924;2022-12-07T02:14:12;96878.59;;;2.33;100.00
10135;BME280;5107;48.850;8.924;2022-12-07T02:16:51;96873.72;;;2.28;100.00
10135;BME280;5107;48.850;8.924;2022-12-07T02:19:50;96878.09;;;2.27;100.00
10135;BME280;5107;48.850;8.924;2022-12-07T02:22:48;96876.56;;;2.25;100.00
10135;BME280;5107;48.850;8.924;2022-12-07T02:25:28;96869.72;;;2.24;100.00
10135;BME280;5107;48.850;8.924;2022-12-07T02:28:06;96869.72;;;2.24;100.00
10135;BME280;5107;48.850;8.924;2022-12-07T02:30:40;96871.50;;;2.23;100.00
10135;BME280;5107;48.850;8.924;2022-12-07T02:33:14;96862.88;;;2.23;100.00
10135;BME280;5107;48.850;8.924;2022-12-07T02:35:46;96857.81;;;2.21;100.00
10135;BME280;5107;48.850;8.924;2022-12-07T02:38:19;96861.22;;;2.22;100.00
10135;BME280;5107;48.850;8.924;2022-12-07T02:40:52;96854.38;;;2.21;100.00
10135;BME280;5107;48.850;8.924;2022-12-07T02:43:25;96851.88;;;2.19;100.00
10135;BME280;5107;48.850;8.924;2022-12-07T02:45:57;96854.38;;;2.21;100.00
10135;BME280;5107;48.850;8.924;2022-12-07T02:48:26;96853.53;;;2.20;100.00
10135;BME280;5107;48.850;8.924;2022-12-07T02:50:54;96857.91;;;2.20;100.00
10135;BME280;5107;48.850;8.924;2022-12-07T02:53:32;96847.53;;;2.20;100.00
10135;BME280;5107;48.850;8.924;2022-12-07T02:56:05;96851.88;;;2.19;100.00
10135;BME280;5107;48.850;8.924;2022-12-07T02:58:45;96853.53;;;2.20;100.00
10135;BME280;5107;48.850;8.924;2022-12-07T03:01:30;96849.41;;;2.18;100.00
10135;BME280;5107;48.850;8.924;2022-12-07T03:04:11;96845.19;;;2.17;100.00
10135;BME280;5107;48.850;8.924;2022-12-07T03:06:47;96846.81;;;2.18;100.00
10135;BME280;5107;48.850;8.924;2022-12-07T03:09:22;96846.81;;;2.18;100.00
10135;BME280;5107;48.850;8.924;2022-12-07T03:12:04;96845.66;;;2.22;100.00
10135;BME280;5107;48.850;8.924;2022-12-07T03:14:41;96847.41;;;2.21;100.00
10135;BME280;5107;48.850;8.924;2022-12-07T03:17:15;96842.13;;;2.23;99.70
10135;BME280;5107;48.850;8.924;2022-12-07T03:19:44;96842.59;;;2.28;100.00
10135;BME280;5107;48.850;8.924;2022-12-07T03:22:13;96849.66;;;2.26;99.72
10135;BME280;5107;48.850;8.924;2022-12-07T03:24:44;96837.16;;;2.20;99.67
10135;BME280;5107;48.850;8.924;2022-12-07T03:27:18;96831.47;;;2.15;99.72
10135;BME280;5107;48.850;8.924;2022-12-07T03:29:50;96829.09;;;2.12;99.75
10135;BME280;5107;48.850;8.924;2022-12-07T03:32:25;96832.75;;;2.09;99.56
10135;BME280;5107;48.850;8.924;2022-12-07T03:35:00;96832.91;;;2.08;99.67
10135;BME280;5107;48.850;8.924;2022-12-07T03:37:33;96833.47;;;2.11;99.90
10135;BME280;5107;48.850;8.924;2022-12-07T03:40:08;96833.56;;;2.10;99.55
10135;BME280;5107;48.850;8.924;2022-12-07T03:42:38;96836.19;;;2.10;99.28
10135;BME280;5107;48.850;8.924;2022-12-07T03:45:08;96837.34;;;2.06;98.65
10135;BME280;5107;48.850;8.924;2022-12-07T03:47:45;96832.38;;;2.03;98.26
10135;BME280;5107;48.850;8.924;2022-12-07T03:50:21;96837.47;;;2.04;98.36
10135;BME280;5107;48.850;8.924;2022-12-07T03:52:54;96824.38;;;2.06;98.41
10135;BME280;5107;48.850;8.924;2022-12-07T03:55:27;96824.72;;;2.01;97.56
10135;BME280;5107;48.850;8.924;2022-12-07T03:58:00;96828.28;;;2.00;97.12
10135;BME280;5107;48.850;8.924;2022-12-07T04:00:28;96821.75;;;1.95;96.28
10135;BME280;5107;48.850;8.924;2022-12-07T04:02:56;96826.13;;;1.94;96.75
10135;BME280;5107;48.850;8.924;2022-12-07T04:05:24;96820.09;;;1.94;96.54
10135;BME280;5107;48.850;8.924;2022-12-07T04:07:51;96813.41;;;1.91;95.84
10135;BME280;5107;48.850;8.924;2022-12-07T04:10:18;96802.19;;;1.90;94.82
10135;BME280;5107;48.850;8.924;2022-12-07T04:12:45;96793.56;;;1.90;95.44
10135;BME280;5107;48.850;8.924;2022-12-07T04:15:12;96789.44;;;1.87;96.92
10135;BME280;5107;48.850;8.924;2022-12-07T04:17:39;96798.25;;;1.85;97.25
10135;BME280;5107;48.850;8.924;2022-12-07T04:20:10;96793.91;;;1.85;97.19
10135;BME280;5107;48.850;8.924;2022-12-07T04:22:37;96789.91;;;1.81;97.42
10135;BME280;5107;48.850;8.924;2022-12-07T04:25:06;96783.28;;;1.77;97.16
10135;BME280;5107;48.850;8.924;2022-12-07T04:27:33;96788.47;;;1.77;96.94
10135;BME280;5107;48.850;8.924;2022-12-07T04:30:00;96785.97;;;1.76;95.71
10135;BME280;5107;48.850;8.924;2022-12-07T04:32:27;96779.38;;;1.72;95.30
10135;BME280;5107;48.850;8.924;2022-12-07T04:34:54;96784.69;;;1.70;94.63
10135;BME280;5107;48.850;8.924;2022-12-07T04:37:23;96784.19;;;1.65;94.76
10135;BME280;5107;48.850;8.924;2022-12-07T04:39:50;96779.94;;;1.64;94.21
10135;BME280;5107;48.850;8.924;2022-12-07T04:42:17;96786.69;;;1.67;94.68
10135;BME280;5107;48.850;8.924;2022-12-07T04:44:44;96787.72;;;1.64;93.66
10135;BME280;5107;48.850;8.924;2022-12-07T04:47:11;96788.19;;;1.69;94.52
10135;BME280;5107;48.850;8.924;2022-12-07T04:49:38;96788.91;;;1.71;93.94
10135;BME280;5107;48.850;8.924;2022-12-07T04:52:05;96791.88;;;1.67;93.29
10135;BME280;5107;48.850;8.924;2022-12-07T04:54:33;96789.38;;;1.65;93.46
10135;BME280;5107;48.850;8.924;2022-12-07T04:57:00;96792.91;;;1.64;93.44
10135;BME280;5107;48.850;8.924;2022-12-07T04:59:27;96794.69;;;1.64;93.49
10135;BME280;5107;48.850;8.924;2022-12-07T05:01:54;96791.72;;;1.57;92.76
10135;BME280;5107;48.850;8.924;2022-12-07T05:04:21;96792.75;;;1.55;92.50
10135;BME280;5107;48.850;8.924;2022-12-07T05:06:48;96804.06;;;1.53;92.93
10135;BME280;5107;48.850;8.924;2022-12-07T05:09:15;96802.19;;;1.56;92.53
10135;BME280;5107;48.850;8.924;2022-12-07T05:11:44;96808.56;;;1.63;92.28
10135;BME280;5107;48.850;8.924;2022-12-07T05:14:15;96820.13;;;1.59;92.07
10135;BME280;5107;48.850;8.924;2022-12-07T05:16:43;96819.84;;;1.50;91.63
10135;BME280;5107;48.850;8.924;2022-12-07T05:19:11;96823.94;;;1.42;91.85
10135;BME280;5107;48.850;8.924;2022-12-07T05:21:40;96809.16;;;1.31;91.76
10135;BME280;5107;48.850;8.924;2022-12-07T05:24:09;96808.53;;;1.28;92.67
10135;BME280;5107;48.850;8.924;2022-12-07T05:26:36;96813.97;;;1.25;93.21
10135;BME280;5107;48.850;8.924;2022-12-07T05:29:05;96812.06;;;1.27;93.23
10135;BME280;5107;48.850;8.924;2022-12-07T05:31:32;96807.72;;;1.27;93.39
10135;BME280;5107;48.850;8.924;2022-12-07T05:33:59;96810.84;;;1.20;92.87
10135;BME280;5107;48.850;8.924;2022-12-07T05:36:27;96810.13;;;1.18;92.70
10135;BME280;5107;48.850;8.924;2022-12-07T05:38:57;96802.16;;;1.21;93.44
10135;BME280;5107;48.850;8.924;2022-12-07T05:41:27;96810.03;;;1.19;92.11
10135;BME280;5107;48.850;8.924;2022-12-07T05:44:13;96810.75;;;1.21;92.04
10135;BME280;5107;48.850;8.924;2022-12-07T05:46:40;96808.06;;;1.23;91.12
10135;BME280;5107;48.850;8.924;2022-12-07T05:49:07;96815.38;;;1.29;90.73
10135;BME280;5107;48.850;8.924;2022-12-07T05:51:34;96802.22;;;1.32;90.95
10135;BME280;5107;48.850;8.924;2022-12-07T05:54:01;96797.75;;;1.34;91.19
10135;BME280;5107;48.850;8.924;2022-12-07T05:56:28;96799.38;;;1.35;90.89
10135;BME280;5107;48.850;8.924;2022-12-07T05:58:55;96798.34;;;1.37;91.07
10135;BME280;5107;48.850;8.924;2022-12-07T06:01:49;96806.59;;;1.42;91.17
10135;BME280;5107;48.850;8.924;2022-12-07T06:04:17;96801.56;;;1.41;91.26
10135;BME280;5107;48.850;8.924;2022-12-07T06:06:44;96816.16;;;1.42;91.56
10135;BME280;5107;48.850;8.924;2022-12-07T06:09:13;96817.78;;;1.43;91.39
10135;BME280;5107;48.850;8.924;2022-12-07T06:11:40;96808.25;;;1.43;90.79
10135;BME280;5107;48.850;8.924;2022-12-07T06:14:25;96803.91;;;1.44;90.56
10135;BME280;5107;48.850;8.924;2022-12-07T06:16:54;96803.91;;;1.44;90.26
10135;BME280;5107;48.850;8.924;2022-12-07T06:19:21;96817.47;;;1.47;90.23
10135;BME280;5107;48.850;8.924;2022-12-07T06:21:48;96813.94;;;1.48;90.07
10135;BME280;5107;48.850;8.924;2022-12-07T06:24:16;96815.47;;;1.51;89.68
10135;BME280;5107;48.850;8.924;2022-12-07T06:26:44;96820.44;;;1.54;88.77
10135;BME280;5107;48.850;8.924;2022-12-07T06:29:12;96817.63;;;1.57;88.14
10135;BME280;5107;48.850;8.924;2022-12-07T06:31:40;96819.06;;;1.61;87.80
10135;BME280;5107;48.850;8.924;2022-12-07T06:34:11;96815.31;;;1.65;87.18
10135;BME280;5107;48.850;8.924;2022-12-07T06:36:39;96808.00;;;1.70;85.64
10135;BME280;5107;48.850;8.924;2022-12-07T06:39:07;96813.09;;;1.72;85.83
10135;BME280;5107;48.850;8.924;2022-12-07T06:41:35;96814.63;;;1.74;84.94
10135;BME280;5107;48.850;8.924;2022-12-07T06:44:03;96816.06;;;1.78;83.79
10135;BME280;5107;48.850;8.924;2022-12-07T06:46:30;96811.22;;;1.85;82.39
10135;BME280;5107;48.850;8.924;2022-12-07T06:48:57;96805.94;;;1.86;82.46
10135;BME280;5107;48.850;8.924;2022-12-07T06:51:26;96802.50;;;1.86;82.21
10135;BME280;5107;48.850;8.924;2022-12-07T06:53:53;96803.34;;;1.86;81.47
10135;BME280;5107;48.850;8.924;2022-12-07T06:56:20;96802.50;;;1.86;80.58
10135;BME280;5107;48.850;8.924;2022-12-07T06:58:49;96798.16;;;1.86;80.26
10135;BME280;5107;48.850;8.924;2022-12-07T07:01:18;96811.84;;;1.88;80.29
10135;BME280;5107;48.850;8.924;2022-12-07T07:03:46;96805.59;;;1.91;80.25
10135;BME280;5107;48.850;8.924;2022-12-07T07:06:14;96806.44;;;1.92;80.13
10135;BME280;5107;48.850;8.924;2022-12-07T07:08:42;96816.00;;;1.91;80.75
10135;BME280;5107;48.850;8.924;2022-12-07T07:11:10;96812.31;;;1.94;79.73
10135;BME280;5107;48.850;8.924;2022-12-07T07:13:38;96816.81;;;1.92;80.45
10135;BME280;5107;48.850;8.924;2022-12-07T07:16:07;96821.00;;;2.16;84.30
10135;BME280;5107;48.850;8.924;2022-12-07T07:18:34;96820.22;;;2.49;86.42
10135;BME280;5107;48.850;8.924;2022-12-07T07:21:01;96815.97;;;2.48;79.38
10135;BME280;5107;48.850;8.924;2022-12-07T07:23:30;96814.50;;;2.22;78.84
10135;BME280;5107;48.850;8.924;2022-12-07T07:25:58;96810.75;;;2.48;83.19
10135;BME280;5107;48.850;8.924;2022-12-07T07:28:26;96810.28;;;2.32;78.02
10135;BME280;5107;48.850;8.924;2022-12-07T07:30:53;96809.53;;;2.19;77.73
10135;BME280;5107;48.850;8.924;2022-12-07T07:33:20;96821.56;;;2.20;78.96
10135;BME280;5107;48.850;8.924;2022-12-07T07:35:47;96831.72;;;2.23;79.73
10135;BME280;5107;48.850;8.924;2022-12-07T07:38:14;96824.41;;;2.28;79.20
10135;BME280;5107;48.850;8.924;2022-12-07T07:40:41;96829.59;;;2.28;79.20
10135;BME280;5107;48.850;8.924;2022-12-07T07:43:10;96839.06;;;2.29;81.00
10135;BME280;5107;48.850;8.924;2022-12-07T07:45:37;96832.00;;;2.42;80.41
10135;BME280;5107;48.850;8.924;2022-12-07T07:48:05;96826.75;;;2.20;83.18
10135;BME280;5107;48.850;8.924;2022-12-07T07:50:32;96828.06;;;2.14;83.09
10135;BME280;5107;48.850;8.924;2022-12-07T07:52:59;96831.81;;;2.10;81.65
10135;BME280;5107;48.850;8.924;2022-12-07T07:55:26;96832.66;;;2.11;80.14
10135;BME280;5107;48.850;8.924;2022-12-07T07:57:54;96836.44;;;2.18;80.92
10135;BME280;5107;48.850;8.924;2022-12-07T08:00:23;96833.19;;;2.49;82.75
10135;BME280;5107;48.850;8.924;2022-12-07T08:02:50;96829.63;;;2.95;86.04
10135;BME280;5107;48.850;8.924;2022-12-07T08:05:17;96838.81;;;3.10;83.18
10135;BME280;5107;48.850;8.924;2022-12-07T08:07:44;96847.34;;;2.90;79.04
10135;BME280;5107;48.850;8.924;2022-12-07T08:10:13;96840.97;;;2.83;79.99
10135;BME280;5107;48.850;8.924;2022-12-07T08:12:42;96841.66;;;2.85;80.24
10135;BME280;5107;48.850;8.924;2022-12-07T08:15:26;96845.47;;;2.70;80.97
10135;BME280;5107;48.850;8.924;2022-12-07T08:17:53;96841.34;;;2.56;81.31
10135;BME280;5107;48.850;8.924;2022-12-07T08:20:20;96842.38;;;2.42;81.73
10135;BME280;5107;48.850;8.924;2022-12-07T08:22:48;96839.56;;;3.01;90.65
10135;BME280;5107;48.850;8.924;2022-12-07T08:25:15;96839.13;;;3.28;84.76
10135;BME280;5107;48.850;8.924;2022-12-07T08:27:42;96839.13;;;3.71;84.81
10135;BME280;5107;48.850;8.924;2022-12-07T08:30:10;96847.09;;;3.58;79.24
10135;BME280;5107;48.850;8.924;2022-12-07T08:32:41;96852.78;;;3.52;78.83
10135;BME280;5107;48.850;8.924;2022-12-07T08:35:08;96848.91;;;3.35;78.23
10135;BME280;5107;48.850;8.924;2022-12-07T08:37:36;96855.72;;;3.16;78.60
10135;BME280;5107;48.850;8.924;2022-12-07T08:40:05;96854.19;;;3.13;80.90
10135;BME280;5107;48.850;8.924;2022-12-07T08:42:32;96860.19;;;3.02;80.70
10135;BME280;5107;48.850;8.924;2022-12-07T08:45:08;96847.81;;;3.06;80.45
10135;BME280;5107;48.850;8.924;2022-12-07T08:47:39;96852.78;;;2.98;81.79
10135;BME280;5107;48.850;8.924;2022-12-07T08:50:10;96848.19;;;2.90;81.10
10135;BME280;5107;48.850;8.924;2022-12-07T08:52:39;96856.91;;;2.89;81.39
10135;BME280;5107;48.850;8.924;2022-12-07T08:55:10;96857.75;;;2.90;81.89
10135;BME280;5107;48.850;8.924;2022-12-07T08:57:38;96856.09;;;3.00;85.40
10135;BME280;5107;48.850;8.924;2022-12-07T09:00:07;96860.50;;;3.42;85.69
10135;BME280;5107;48.850;8.924;2022-12-07T09:02:35;96851.28;;;3.38;82.12
10135;BME280;5107;48.850;8.924;2022-12-07T09:05:03;96854.38;;;3.32;81.75
10135;BME280;5107;48.850;8.924;2022-12-07T09:07:32;96847.66;;;3.19;81.11
10135;BME280;5107;48.850;8.924;2022-12-07T09:10:00;96846.72;;;3.20;82.12
10135;BME280;5107;48.850;8.924;2022-12-07T09:12:27;96844.22;;;3.18;82.36
10135;BME280;5107;48.850;8.924;2022-12-07T09:14:55;96851.47;;;3.15;82.35
10135;BME280;5107;48.850;8.924;2022-12-07T09:17:22;96844.72;;;3.12;82.51
10135;BME280;5107;48.850;8.924;2022-12-07T09:19:50;96846.50;;;3.12;83.07
10135;BME280;5107;48.850;8.924;2022-12-07T09:22:17;96845.78;;;3.21;83.68
10135;BME280;5107;48.850;8.924;2022-12-07T09:24:46;96851.09;;;3.19;83.14
10135;BME280;5107;48.850;8.924;2022-12-07T09:27:13;96849.09;;;3.23;84.00
10135;BME280;5107;48.850;8.924;2022-12-07T09:29:40;96848.03;;;3.25;84.36
10135;BME280;5107;48.850;8.924;2022-12-07T09:32:07;96849.41;;;3.29;84.91
10135;BME280;5107;48.850;8.924;2022-12-07T09:34:34;96844.00;;;3.32;85.77
10135;BME280;5107;48.850;8.924;2022-12-07T09:37:02;96847.66;;;3.62;85.31
10135;BME280;5107;48.850;8.924;2022-12-07T09:39:29;96847.84;;;3.81;84.70
10135;BME280;5107;48.850;8.924;2022-12-07T09:41:58;96848.28;;;3.86;84.57
10135;BME280;5107;48.850;8.924;2022-12-07T09:44:27;96854.63;;;3.72;84.59
10135;BME280;5107;48.850;8.924;2022-12-07T09:46:55;96851.41;;;3.69;84.46
10135;BME280;5107;48.850;8.924;2022-12-07T09:49:24;96847.56;;;3.63;84.01
10135;BME280;5107;48.850;8.924;2022-12-07T09:52:02;96836.22;;;3.53;84.34
10135;BME280;5107;48.850;8.924;2022-12-07T09:54:30;96844.63;;;3.57;84.87
10135;BME280;5107;48.850;8.924;2022-12-07T09:56:59;96838.59;;;3.56;84.48
10135;BME280;5107;48.850;8.924;2022-12-07T09:59:26;96839.44;;;3.46;83.89
10135;BME280;5107;48.850;8.924;2022-12-07T10:01:53;96831.75;;;3.44;84.36
10135;BME280;5107;48.850;8.924;2022-12-07T10:04:23;96830.94;;;3.43;84.98
10135;BME280;5107;48.850;8.924;2022-12-07T10:06:51;96833.81;;;3.40;85.04
10135;BME280;5107;48.850;8.924;2022-12-07T10:09:20;96827.47;;;3.22;86.00
10135;BME280;5107;48.850;8.924;2022-12-07T10:12:05;96818.38;;;3.17;86.98
10135;BME280;5107;48.850;8.924;2022-12-07T10:14:34;96810.94;;;3.12;87.28
10135;BME280;5107;48.850;8.924;2022-12-07T10:17:02;96810.44;;;3.18;88.11
10135;BME280;5107;48.850;8.924;2022-12-07T10:19:49;96812.06;;;3.30;87.89
10135;BME280;5107;48.850;8.924;2022-12-07T10:22:17;96820.78;;;3.40;87.72
10135;BME280;5107;48.850;8.924;2022-12-07T10:24:46;96811.56;;;3.48;87.84
10135;BME280;5107;48.850;8.924;2022-12-07T10:27:22;96809.53;;;3.51;87.54
10135;BME280;5107;48.850;8.924;2022-12-07T10:29:53;96810.81;;;3.57;87.71
10135;BME280;5107;48.850;8.924;2022-12-07T10:32:33;96814.88;;;3.50;88.30
10135;BME280;5107;48.850;8.924;2022-12-07T10:35:22;96815.53;;;3.52;89.34
10135;BME280;5107;48.850;8.924;2022-12-07T10:37:51;96807.09;;;3.38;90.53
10135;BME280;5107;48.850;8.924;2022-12-07T10:40:30;96812.91;;;3.20;90.62
10135;BME280;5107;48.850;8.924;2022-12-07T10:43:17;96802.47;;;2.99;92.02
10135;BME280;5107;48.850;8.924;2022-12-07T10:46:19;96803.63;;;2.95;93.20
10135;BME280;5107;48.850;8.924;2022-12-07T10:49:00;96789.00;;;2.94;94.13
10135;BME280;5107;48.850;8.924;2022-12-07T10:51:38;96795.16;;;2.93;94.02
10135;BME280;5107;48.850;8.924;2022-12-07T10:54:12;96798.22;;;2.98;93.91
10135;BME280;5107;48.850;8.924;2022-12-07T10:57:26;96799.97;;;2.97;93.16
10135;BME280;5107;48.850;8.924;2022-12-07T11:00:21;96791.69;;;3.03;93.52
10135;BME280;5107;48.850;8.924;2022-12-07T11:03:15;96791.22;;;3.10;93.00
10135;BME280;5107;48.850;8.924;2022-12-07T11:05:54;96796.28;;;3.11;92.78
10135;BME280;5107;48.850;8.924;2022-12-07T11:08:47;96790.97;;;3.13;92.67
10135;BME280;5107;48.850;8.924;2022-12-07T11:11:23;96795.66;;;3.19;92.66
10135;BME280;5107;48.850;8.924;2022-12-07T11:13:59;96789.63;;;3.18;92.63
10135;BME280;5107;48.850;8.924;2022-12-07T11:16:55;96779.84;;;3.22;92.05
10135;BME280;5107;48.850;8.924;2022-12-07T11:19:40;96781.50;;;3.23;92.40
10135;BME280;5107;48.850;8.924;2022-12-07T11:22:20;96783.16;;;3.24;91.41
10135;BME280;5107;48.850;8.924;2022-12-07T11:24:58;96776.88;;;3.26;91.13
10135;BME280;5107;48.850;8.924;2022-12-07T11:27:35;96776.88;;;3.26;91.15
10135;BME280;5107;48.850;8.924;2022-12-07T11:30:14;96772.25;;;3.30;90.68
10135;BME280;5107;48.850;8.924;2022-12-07T11:33:12;96772.75;;;3.24;89.68
10135;BME280;5107;48.850;8.924;2022-12-07T11:35:52;96778.28;;;3.30;90.02
10135;BME280;5107;48.850;8.924;2022-12-07T11:38:31;96770.03;;;3.25;89.35
10135;BME280;5107;48.850;8.924;2022-12-07T11:41:04;96768.13;;;3.27;89.64
10135;BME280;5107;48.850;8.924;2022-12-07T11:43:58;96768.69;;;3.31;89.88
10135;BME280;5107;48.850;8.924;2022-12-07T11:46:33;96763.50;;;3.31;89.70
10135;BME280;5107;48.850;8.924;2022-12-07T11:49:10;96766.00;;;3.32;89.55
10135;BME280;5107;48.850;8.924;2022-12-07T11:51:41;96762.16;;;3.36;88.69
10135;BME280;5107;48.850;8.924;2022-12-07T11:54:15;96761.72;;;3.31;88.86
10135;BME280;5107;48.850;8.924;2022-12-07T11:56:48;96757.88;;;3.26;88.68
10135;BME280;5107;48.850;8.924;2022-12-07T11:59:23;96753.13;;;3.20;88.62
10135;BME280;5107;48.850;8.924;2022-12-07T12:01:57;96758.22;;;3.21;88.88
10135;BME280;5107;48.850;8.924;2022-12-07T12:04:39;96758.09;;;3.23;89.11
10135;BME280;5107;48.850;8.924;2022-12-07T12:07:16;96750.66;;;3.18;89.09
10135;BME280;5107;48.850;8.924;2022-12-07T12:09:49;96753.97;;;3.20;89.73
10135;BME280;5107;48.850;8.924;2022-12-07T12:12:50;96748.97;;;3.28;90.12
10135;BME280;5107;48.850;8.924;2022-12-07T12:15:35;96747.91;;;3.31;89.62
10135;BME280;5107;48.850;8.924;2022-12-07T12:18:34;96746.34;;;3.39;89.48
10135;BME280;5107;48.850;8.924;2022-12-07T12:21:07;96743.44;;;3.54;89.26
10135;BME280;5107;48.850;8.924;2022-12-07T12:23:41;96743.63;;;3.62;88.39
10135;BME280;5107;48.850;8.924;2022-12-07T12:26:17;96739.72;;;3.67;87.89
10135;BME280;5107;48.850;8.924;2022-12-07T12:28:53;96732.00;;;3.87;87.82
10135;BME280;5107;48.850;8.924;2022-12-07T12:31:38;96730.03;;;4.00;86.60
10135;BME280;5107;48.850;8.924;2022-12-07T12:34:57;96731.19;;;3.86;86.33
10135;BME280;5107;48.850;8.924;2022-12-07T12:37:43;96730.22;;;3.87;87.11
10135;BME280;5107;48.850;8.924;2022-12-07T12:40:43;96730.94;;;3.89;86.20
10135;BME280;5107;48.850;8.924;2022-12-07T12:43:45;96729.41;;;3.87;86.55
10135;BME280;5107;48.850;8.924;2022-12-07T12:46:54;96721.47;;;3.88;86.63
10135;BME280;5107;48.850;8.924;2022-12-07T12:53:23;96731.94;;;3.77;87.68
10135;BME280;5107;48.850;8.924;2022-12-07T12:56:26;96723.34;;;3.76;87.66
10135;BME280;5107;48.850;8.924;2022-12-07T12:59:28;96723.41;;;3.65;87.77
10135;BME280;5107;48.850;8.924;2022-12-07T13:02:16;96722.63;;;3.54;87.34
10135;BME280;5107;48.850;8.924;2022-12-07T13:04:53;96718.94;;;3.56;88.36
10135;BME280;5107;48.850;8.924;2022-12-07T13:07:56;96716.47;;;3.55;88.34
10135;BME280;5107;48.850;8.924;2022-12-07T13:10:39;96713.88;;;3.55;88.32
10135;BME280;5107;48.850;8.924;2022-12-07T13:13:35;96709.81;;;3.41;88.06
10135;BME280;5107;48.850;8.924;2022-12-07T13:16:48;96707.56;;;3.36;88.26
10135;BME280;5107;48.850;8.924;2022-12-07T13:19:58;96706.44;;;3.29;88.25
10135;BME280;5107;48.850;8.924;2022-12-07T13:22:51;96698.31;;;3.23;87.86
10135;BME280;5107;48.850;8.924;2022-12-07T13:25:35;96704.09;;;3.26;87.69
10135;BME280;5107;48.850;8.924;2022-12-07T13:28:14;96693.19;;;3.32;88.22
10135;BME280;5107;48.850;8.924;2022-12-07T13:31:00;96697.28;;;3.35;88.65
10135;BME280;5107;48.850;8.924;2022-12-07T13:33:30;96689.50;;;3.35;87.23
10135;BME280;5107;48.850;8.924;2022-12-07T13:35:57;96694.56;;;3.36;87.75
10135;BME280;5107;48.850;8.924;2022-12-07T13:38:29;96693.69;;;3.26;87.74
10135;BME280;5107;48.850;8.924;2022-12-07T13:41:13;96696.06;;;3.18;88.18
10135;BME280;5107;48.850;8.924;2022-12-07T13:43:45;96695.50;;;3.15;88.76
10135;BME280;5107;48.850;8.924;2022-12-07T13:46:12;96693.56;;;3.49;93.28
10135;BME280;5107;48.850;8.924;2022-12-07T13:48:46;96691.66;;;3.71;88.64
10135;BME280;5107;48.850;8.924;2022-12-07T13:51:25;96689.09;;;3.51;86.78
10135;BME280;5107;48.850;8.924;2022-12-07T13:53:55;96683.84;;;3.30;87.26
10135;BME280;5107;48.850;8.924;2022-12-07T13:56:28;96683.97;;;3.28;88.03